createdAt,value
2019-04-05T00:00:49.972Z,100492.13
2019-04-05T00:03:23.292Z,100496.88
2019-04-05T00:05:56.624Z,100494.35
2019-04-05T00:08:29.922Z,100493.53
2019-04-05T00:11:04.875Z,100500.92
2019-04-05T00:13:38.178Z,100501.81
2019-04-05T00:16:11.581Z,100501.45
2019-04-05T00:18:45.955Z,100501.96
2019-04-05T00:21:19.354Z,100500.70
2019-04-05T00:23:52.673Z,100507.27
2019-04-05T00:26:26.094Z,100510.31
2019-04-05T00:28:59.421Z,100506.00
2019-04-05T00:31:32.860Z,100508.23
2019-04-05T00:34:06.158Z,100512.55
2019-04-05T00:36:39.561Z,100511.28
2019-04-05T00:39:12.854Z,100514.36
2019-04-05T00:41:46.259Z,100505.31
2019-04-05T00:44:19.590Z,100513.12
2019-04-05T00:46:52.905Z,100398.17
2019-04-05T00:49:26.250Z,100516.23
2019-04-05T00:51:59.544Z,100518.84
2019-04-05T00:54:32.886Z,100523.56
2019-04-05T00:57:06.269Z,100515.79
2019-04-05T00:59:39.596Z,100522.32
2019-04-05T01:02:14.131Z,100521.98
2019-04-05T01:04:47.524Z,100521.59
2019-04-05T01:07:21.003Z,100527.30
2019-04-05T01:09:54.501Z,100529.02
2019-04-05T01:12:31.899Z,100531.66
2019-04-05T01:15:04.812Z,100533.39
2019-04-05T01:17:38.578Z,100528.64
2019-04-05T01:20:11.979Z,100535.20
2019-04-05T01:22:45.516Z,100423.59
2019-04-05T01:25:18.861Z,100529.65
2019-04-05T01:27:52.185Z,100536.18
2019-04-05T01:30:25.490Z,100531.45
2019-04-05T01:32:58.908Z,100535.37
2019-04-05T01:35:32.230Z,100536.27
2019-04-05T01:38:05.840Z,100546.72
2019-04-05T01:40:39.533Z,100548.02
2019-04-05T01:43:12.962Z,100552.80
2019-04-05T01:45:53.591Z,100554.58
2019-04-05T01:48:21.311Z,100551.98
2019-04-05T01:50:54.667Z,100555.48
2019-04-05T01:53:28.179Z,100559.86
2019-04-05T01:56:02.545Z,100554.28
2019-04-05T01:58:35.999Z,100557.29
2019-04-05T02:01:09.391Z,100551.30
2019-04-05T02:03:42.895Z,100552.59
2019-04-05T02:06:16.269Z,100553.50
2019-04-05T02:08:49.807Z,100561.30
2019-04-05T02:11:24.845Z,100559.11
2019-04-05T02:13:58.196Z,100548.27
2019-04-05T02:16:31.520Z,100545.78
2019-04-05T02:19:04.835Z,100554.44
2019-04-05T02:21:38.219Z,100551.84
2019-04-05T02:24:11.410Z,100553.14
2019-04-05T02:26:44.874Z,100545.40
2019-04-05T02:29:18.234Z,100546.28
2019-04-05T02:31:51.801Z,100549.77
2019-04-05T02:34:26.913Z,100554.10
2019-04-05T02:37:00.849Z,100557.58
2019-04-05T02:39:34.345Z,100549.37
2019-04-05T02:42:07.954Z,100540.34
2019-04-05T02:44:41.853Z,100549.45
2019-04-05T02:47:15.247Z,100542.59
2019-04-05T02:49:48.414Z,100551.27
2019-04-05T02:52:21.959Z,100552.56
2019-04-05T02:54:56.792Z,100549.11
2019-04-05T02:57:30.107Z,100547.45
2019-04-05T03:00:03.788Z,100558.30
2019-04-05T03:02:38.293Z,100561.75
2019-04-05T03:05:11.740Z,100560.92
2019-04-05T03:07:45.125Z,100560.09
2019-04-05T03:10:55.357Z,100562.66
2019-04-05T03:13:29.742Z,100563.59
2019-04-05T03:16:06.665Z,100558.45
2019-04-05T03:18:42.317Z,100561.52
2019-04-05T03:21:15.663Z,100562.84
2019-04-05T03:23:48.954Z,100562.38
2019-04-05T03:26:25.961Z,100555.92
2019-04-05T03:28:59.281Z,100559.83
2019-04-05T03:31:33.098Z,100559.00
2019-04-05T03:34:06.741Z,100558.05
2019-04-05T03:36:40.274Z,100561.07
2019-04-05T03:39:15.307Z,100559.23
2019-04-05T03:41:48.637Z,100559.94
2019-04-05T03:44:23.100Z,100558.86
2019-04-05T03:46:58.023Z,100566.77
2019-04-05T03:49:32.612Z,100564.72
2019-04-05T03:52:06.000Z,100565.80
2019-04-05T03:54:39.370Z,100574.56
2019-04-05T03:57:12.691Z,100586.31
2019-04-05T03:59:46.244Z,100581.66
2019-04-05T04:02:23.330Z,100575.20
2019-04-05T04:04:54.795Z,100579.61
2019-04-05T04:07:29.426Z,100583.09
2019-04-05T04:10:03.658Z,100586.14
2019-04-05T04:12:37.045Z,100577.90
2019-04-05T04:15:13.451Z,100581.85
2019-04-05T04:17:45.900Z,100586.26
2019-04-05T04:20:28.405Z,100589.35
2019-04-05T04:23:02.036Z,100582.97
2019-04-05T04:25:35.767Z,100589.57
2019-04-05T04:28:09.117Z,100591.48
2019-04-05T04:30:42.458Z,100596.76
2019-04-05T04:33:17.422Z,100602.23
2019-04-05T04:35:51.516Z,100602.07
2019-04-05T04:38:24.926Z,100509.47
2019-04-05T04:40:58.428Z,100607.89
2019-04-05T04:43:31.847Z,100605.20
2019-04-05T04:46:07.044Z,100609.02
2019-04-05T04:48:41.376Z,100611.97
2019-04-05T04:51:14.698Z,100611.63
2019-04-05T04:53:48.080Z,100608.91
2019-04-05T04:56:21.548Z,100604.23
2019-04-05T04:58:55.164Z,100604.70
2019-04-05T05:01:28.492Z,100606.00
2019-04-05T05:04:01.811Z,100600.60
2019-04-05T05:06:34.971Z,100604.12
2019-04-05T05:09:09.796Z,100609.05
2019-04-05T05:11:43.175Z,100505.20
2019-04-05T05:14:17.540Z,100603.47
2019-04-05T05:16:50.950Z,100604.53
2019-04-05T05:19:24.494Z,100602.47
2019-04-05T05:21:57.823Z,100603.88
2019-04-05T05:24:31.277Z,100614.87
2019-04-05T05:27:04.798Z,100605.73
2019-04-05T05:29:38.120Z,100613.01
2019-04-05T05:32:11.513Z,100610.50
2019-04-05T05:34:46.415Z,100618.02
2019-04-05T05:37:20.743Z,100621.54
2019-04-05T05:39:54.595Z,100625.05
2019-04-05T05:42:27.918Z,100625.64
2019-04-05T05:45:01.109Z,100626.50
2019-04-05T05:47:34.331Z,100626.54
2019-04-05T05:50:08.047Z,100628.89
2019-04-05T05:52:41.406Z,100628.00
2019-04-05T05:55:15.127Z,100626.73
2019-04-05T05:57:48.646Z,100630.69
2019-04-05T06:00:22.746Z,100641.34
2019-04-05T06:02:56.393Z,100642.20
2019-04-05T06:05:30.261Z,100640.64
2019-04-05T06:08:03.895Z,100646.84
2019-04-05T06:10:38.885Z,100649.09
2019-04-05T06:13:12.534Z,100637.26
2019-04-05T06:15:46.294Z,100649.17
2019-04-05T06:18:19.687Z,100655.20
2019-04-05T06:20:53.490Z,100658.02
2019-04-05T06:23:34.025Z,100663.72
2019-04-05T06:26:07.227Z,100669.83
2019-04-05T06:28:41.915Z,100674.02
2019-04-05T06:31:15.382Z,100677.89
2019-04-05T06:33:48.859Z,100677.53
2019-04-05T06:36:22.370Z,100680.11
2019-04-05T06:38:55.812Z,100679.24
2019-04-05T06:41:29.313Z,100680.87
2019-04-05T06:44:03.231Z,100680.47
2019-04-05T06:46:36.556Z,100682.17
2019-04-05T06:49:10.308Z,100679.98
2019-04-05T06:51:43.896Z,100688.20
2019-04-05T06:54:17.465Z,100690.36
2019-04-05T06:56:51.034Z,100686.37
2019-04-05T06:59:26.191Z,100681.69
2019-04-05T07:01:59.978Z,100689.88
2019-04-05T07:04:33.962Z,100697.25
2019-04-05T07:07:07.772Z,100698.92
2019-04-05T07:09:41.136Z,100693.42
2019-04-05T07:12:14.442Z,100693.70
2019-04-05T07:14:47.882Z,100699.81
2019-04-05T07:17:21.510Z,100698.31
2019-04-05T07:19:54.887Z,100697.01
2019-04-05T07:22:37.217Z,100697.95
2019-04-05T07:25:05.648Z,100702.34
2019-04-05T07:27:39.114Z,100706.34
2019-04-05T07:30:12.456Z,100707.08
2019-04-05T07:32:46.782Z,100706.75
2019-04-05T07:35:32.707Z,100708.87
2019-04-05T07:37:59.066Z,100713.67
2019-04-05T07:40:32.485Z,100722.10
2019-04-05T07:43:05.865Z,100723.33
2019-04-05T07:45:39.199Z,100716.77
2019-04-05T07:48:12.612Z,100722.27
2019-04-05T07:50:46.133Z,100723.12
2019-04-05T07:53:19.519Z,100721.37
2019-04-05T07:55:53.610Z,100718.73
2019-04-05T07:58:27.262Z,100730.42
2019-04-05T08:01:02.457Z,100723.42
2019-04-05T08:03:36.426Z,100721.34
2019-04-05T08:06:10.434Z,100719.59
2019-04-05T08:08:54.596Z,100716.03
2019-04-05T08:11:28.044Z,100716.00
2019-04-05T08:14:01.703Z,100719.95
2019-04-05T08:16:35.527Z,100716.45
2019-04-05T08:19:09.775Z,100720.77
2019-04-05T08:21:44.738Z,100714.12
2019-04-05T08:24:18.595Z,100712.86
2019-04-05T08:26:51.981Z,100714.94
2019-04-05T08:29:25.406Z,100709.77
2019-04-05T08:31:58.864Z,100711.39
2019-04-05T08:34:33.746Z,100717.82
2019-04-05T08:37:07.232Z,100716.92
2019-04-05T08:39:40.985Z,100711.17
2019-04-05T08:42:14.784Z,100714.19
2019-04-05T08:44:48.759Z,100717.61
2019-04-05T08:47:22.827Z,100716.71
2019-04-05T08:49:56.405Z,100711.39
2019-04-05T08:52:29.769Z,100712.34
2019-04-05T08:55:04.596Z,100713.15
2019-04-05T08:57:38.058Z,100708.70
2019-04-05T09:00:13.094Z,100709.19
2019-04-05T09:02:46.524Z,100708.73
2019-04-05T09:05:19.946Z,100715.67
2019-04-05T09:07:58.854Z,100717.74
2019-04-05T09:10:32.711Z,100716.39
2019-04-05T09:13:06.271Z,100709.46
2019-04-05T09:15:41.397Z,100711.17
2019-04-05T09:18:14.745Z,100701.72
2019-04-05T09:20:48.448Z,100699.97
2019-04-05T09:23:21.828Z,100690.56
2019-04-05T09:25:55.223Z,100691.41
2019-04-05T09:28:28.536Z,100692.27
2019-04-05T09:31:03.812Z,100690.16
2019-04-05T09:33:37.152Z,100686.60
2019-04-05T09:36:10.516Z,100690.16
2019-04-05T09:38:44.024Z,100683.24
2019-04-05T09:41:17.342Z,100680.23
2019-04-05T09:43:50.740Z,100679.33
2019-04-05T09:46:24.142Z,100685.34
2019-04-05T09:48:57.729Z,100676.22
2019-04-05T09:51:31.136Z,100676.66
2019-04-05T09:54:04.630Z,100679.42
2019-04-05T09:56:37.933Z,100682.92
2019-04-05T09:59:12.349Z,100675.38
2019-04-05T10:01:46.956Z,100676.35
2019-04-05T10:04:20.482Z,100675.82
2019-04-05T10:06:53.877Z,100671.50
2019-04-05T10:09:27.472Z,100674.06
2019-04-05T10:12:00.851Z,100668.58
2019-04-05T10:14:34.305Z,100668.94
2019-04-05T10:17:07.711Z,100674.15
2019-04-05T10:19:49.739Z,100667.27
2019-04-05T10:22:16.351Z,100669.83
2019-04-05T10:24:49.877Z,100670.29
2019-04-05T10:27:23.234Z,100659.48
2019-04-05T10:29:56.925Z,100672.26
2019-04-05T10:32:30.472Z,100663.44
2019-04-05T10:35:04.361Z,100658.63
2019-04-05T10:37:37.791Z,100656.39
2019-04-05T10:40:11.152Z,100657.00
2019-04-05T10:42:44.526Z,100651.39
2019-04-05T10:45:18.173Z,100653.68
2019-04-05T10:47:51.519Z,100652.38
2019-04-05T10:50:25.378Z,100655.88
2019-04-05T10:52:58.689Z,100651.92
2019-04-05T10:55:32.392Z,100655.88
2019-04-05T10:58:05.730Z,100655.06
2019-04-05T11:00:39.174Z,100654.74
2019-04-05T11:03:12.607Z,100651.33
2019-04-05T11:05:49.093Z,100656.09
2019-04-05T11:08:21.609Z,100647.86
2019-04-05T11:10:54.950Z,100649.58
2019-04-05T11:13:28.561Z,100644.77
2019-04-05T11:16:04.232Z,100643.46
2019-04-05T11:18:37.554Z,100642.29
2019-04-05T11:21:11.100Z,100639.69
2019-04-05T11:23:46.396Z,100634.51
2019-04-05T11:26:20.452Z,100651.86
2019-04-05T11:28:55.543Z,100651.00
2019-04-05T11:31:29.054Z,100642.29
2019-04-05T11:34:02.386Z,100637.52
2019-04-05T11:36:35.706Z,100647.09
2019-04-05T11:39:09.142Z,100645.84
2019-04-05T11:41:43.444Z,100647.14
2019-04-05T11:44:17.367Z,100656.63
2019-04-05T11:46:51.106Z,100649.70
2019-04-05T11:49:24.476Z,100646.36
2019-04-05T11:51:58.074Z,100646.69
2019-04-05T11:54:31.591Z,100652.27
2019-04-05T11:57:04.908Z,100645.75
2019-04-05T11:59:41.074Z,100643.87
2019-04-05T12:02:14.710Z,100638.38
2019-04-05T12:04:48.321Z,100636.17
2019-04-05T12:07:26.226Z,100637.64
2019-04-05T12:09:59.003Z,100637.28
2019-04-05T12:12:32.865Z,100632.48
2019-04-05T12:15:06.938Z,100639.44
2019-04-05T12:17:40.603Z,100635.77
2019-04-05T12:20:15.365Z,100637.52
2019-04-05T12:22:52.340Z,100602.58
2019-04-05T12:25:24.992Z,100624.39
2019-04-05T12:28:06.187Z,100621.34
2019-04-05T12:30:33.761Z,100622.56
2019-04-05T12:33:14.007Z,100627.77
2019-04-05T12:35:47.138Z,100619.08
2019-04-05T12:38:28.284Z,100617.66
2019-04-05T12:40:56.466Z,100617.44
2019-04-05T12:43:30.354Z,100610.91
2019-04-05T12:46:03.898Z,100615.50
2019-04-05T12:48:38.392Z,100625.47
2019-04-05T12:51:15.425Z,100627.68
2019-04-05T12:53:48.292Z,100613.20
2019-04-05T12:56:24.397Z,100618.30
2019-04-05T12:58:57.822Z,100611.73
2019-04-05T13:01:31.123Z,100607.77
2019-04-05T13:04:05.740Z,100606.41
2019-04-05T13:06:42.309Z,100609.43
2019-04-05T13:09:17.042Z,100587.95
2019-04-05T13:11:50.707Z,100600.47
2019-04-05T13:14:26.179Z,100600.36
2019-04-05T13:17:02.626Z,100597.80
2019-04-05T13:19:34.735Z,100601.58
2019-04-05T13:22:08.047Z,100591.98
2019-04-05T13:24:41.626Z,100596.70
2019-04-05T13:27:15.555Z,100593.99
2019-04-05T13:29:49.678Z,100589.06
2019-04-05T13:32:23.226Z,100580.28
2019-04-05T13:34:57.667Z,100578.02
2019-04-05T13:37:31.558Z,100578.48
2019-04-05T13:40:06.568Z,100579.98
2019-04-05T13:42:40.095Z,100570.14
2019-04-05T13:45:13.485Z,100569.75
2019-04-05T13:47:46.810Z,100565.21
2019-04-05T13:50:21.948Z,100568.69
2019-04-05T13:52:55.355Z,100565.65
2019-04-05T13:55:28.707Z,100561.09
2019-04-05T13:58:02.002Z,100562.19
2019-04-05T14:00:35.436Z,100562.80
2019-04-05T14:03:08.834Z,100554.27
2019-04-05T14:05:42.169Z,100554.31
2019-04-05T14:08:16.002Z,100552.78
2019-04-05T14:10:50.926Z,100548.00
2019-04-05T14:13:24.311Z,100547.20
2019-04-05T14:15:57.630Z,100533.41
2019-04-05T14:18:31.149Z,100540.97
2019-04-05T14:21:04.725Z,100547.56
2019-04-05T14:23:38.210Z,100545.54
2019-04-05T14:26:11.518Z,100542.63
2019-04-05T14:28:44.922Z,100537.52
2019-04-05T14:31:18.223Z,100534.56
2019-04-05T14:33:54.228Z,100533.81
2019-04-05T14:36:26.734Z,100532.59
2019-04-05T14:39:00.420Z,100527.03
2019-04-05T14:41:34.280Z,100535.30
2019-04-05T14:44:07.676Z,100525.73
2019-04-05T14:46:41.156Z,100527.42
2019-04-05T14:49:15.177Z,100526.07
2019-04-05T14:51:54.983Z,100516.34
2019-04-05T14:54:23.721Z,100510.17
2019-04-05T14:56:57.480Z,100507.52
2019-04-05T14:59:32.811Z,100505.81
2019-04-05T15:02:06.553Z,100508.83
2019-04-05T15:04:39.953Z,100498.37
2019-04-05T15:07:13.270Z,100499.68
2019-04-05T15:09:46.719Z,100497.92
2019-04-05T15:12:20.110Z,100494.08
2019-04-05T15:14:53.469Z,100494.12
2019-04-05T15:17:26.845Z,100502.84
2019-04-05T15:20:00.258Z,100500.70
2019-04-05T15:22:34.494Z,100494.67
2019-04-05T15:25:07.947Z,100499.44
2019-04-05T15:27:41.388Z,100496.48
2019-04-05T15:30:15.314Z,100496.42
2019-04-05T15:32:51.377Z,100397.48
2019-04-05T15:35:26.476Z,100500.80
2019-04-05T15:38:02.362Z,100497.69
2019-04-05T15:40:36.219Z,100496.73
2019-04-05T15:43:09.602Z,100494.86
2019-04-05T15:45:42.930Z,100498.27
2019-04-05T15:48:16.270Z,100496.02
2019-04-05T15:50:51.641Z,100496.36
2019-04-05T15:53:24.901Z,100493.61
2019-04-05T15:55:58.949Z,100493.59
2019-04-05T15:58:34.083Z,100495.34
2019-04-05T16:01:08.500Z,100501.48
2019-04-05T16:03:41.868Z,100492.95
2019-04-05T16:06:15.609Z,100493.41
2019-04-05T16:08:49.258Z,100496.11
2019-04-05T16:11:22.902Z,100488.28
2019-04-05T16:13:56.311Z,100492.15
2019-04-05T16:16:29.554Z,100504.75
2019-04-05T16:19:06.226Z,100499.88
2019-04-05T16:21:39.985Z,100495.56
2019-04-05T16:24:13.450Z,100495.97
2019-04-05T16:26:46.967Z,100496.86
2019-04-05T16:29:20.433Z,100496.31
2019-04-05T16:31:56.127Z,100501.08
2019-04-05T16:34:31.902Z,100514.53
2019-04-05T16:37:07.540Z,100512.42
2019-04-05T16:39:42.408Z,100506.86
2019-04-05T16:42:16.909Z,100512.58
2019-04-05T16:44:50.299Z,100512.27
2019-04-05T16:47:23.882Z,100519.27
2019-04-05T16:49:57.988Z,100521.97
2019-04-05T16:52:44.213Z,100528.59
2019-04-05T16:57:40.577Z,100530.13
2019-04-05T17:00:13.980Z,100537.19
2019-04-05T17:02:47.518Z,100539.00
2019-04-05T17:05:21.031Z,100536.48
2019-04-05T17:07:54.578Z,100540.53
2019-04-05T17:10:28.645Z,100542.79
2019-04-05T17:13:02.047Z,100535.95
2019-04-05T17:15:35.630Z,100536.09
2019-04-05T17:18:10.895Z,100541.80
2019-04-05T17:20:45.293Z,100536.19
2019-04-05T17:23:19.223Z,100543.19
2019-04-05T17:25:52.563Z,100541.12
2019-04-05T17:28:26.076Z,100542.06
2019-04-05T17:30:59.561Z,100544.30
2019-04-05T17:33:33.701Z,100536.58
2019-04-05T17:36:08.969Z,100543.58
2019-04-05T17:38:42.857Z,100538.45
2019-04-05T17:41:16.163Z,100542.78
2019-04-05T17:43:49.501Z,100542.41
2019-04-05T17:46:22.982Z,100543.35
2019-04-05T17:48:56.673Z,100542.09
2019-04-05T17:51:30.890Z,100538.23
2019-04-05T17:54:07.878Z,100532.20
2019-04-05T17:56:42.494Z,100542.22
2019-04-05T17:59:16.511Z,100542.71
2019-04-05T18:01:51.406Z,100544.91
2019-04-05T18:04:24.908Z,100545.77
2019-04-05T18:06:58.354Z,100549.70
2019-04-05T18:09:33.247Z,100549.76
2019-04-05T18:12:07.023Z,100546.29
2019-04-05T18:14:40.544Z,100547.15
2019-04-05T18:17:13.939Z,100555.86
2019-04-05T18:19:47.295Z,100553.73
2019-04-05T18:22:21.866Z,100547.71
2019-04-05T18:24:55.362Z,100552.11
2019-04-05T18:27:28.862Z,100553.41
2019-04-05T18:30:02.650Z,100550.36
2019-04-05T18:32:35.930Z,100555.16
2019-04-05T18:35:09.344Z,100556.09
2019-04-05T18:37:42.651Z,100559.56
2019-04-05T18:40:16.025Z,100561.75
2019-04-05T18:42:49.348Z,100561.34
2019-04-05T18:45:22.804Z,100563.98
2019-04-05T18:47:56.181Z,100563.09
2019-04-05T18:50:29.548Z,100562.28
2019-04-05T18:53:04.504Z,100564.52
2019-04-05T18:55:38.029Z,100561.05
2019-04-05T18:58:11.424Z,100559.34
2019-04-05T19:00:44.801Z,100557.19
2019-04-05T19:03:18.133Z,100568.91
2019-04-05T19:05:51.815Z,100565.48
2019-04-05T19:08:25.325Z,100572.03
2019-04-05T19:10:58.689Z,100575.49
2019-04-05T19:13:32.070Z,100576.39
2019-04-05T19:16:05.563Z,100584.68
2019-04-05T19:18:39.048Z,100580.33
2019-04-05T19:21:12.454Z,100589.00
2019-04-05T19:23:50.967Z,100592.94
2019-04-05T19:26:20.821Z,100591.19
2019-04-05T19:28:54.188Z,100595.55
2019-04-05T19:49:35.594Z,100597.40
2019-04-05T19:52:09.081Z,100597.44
2019-04-05T19:54:42.402Z,100603.09
2019-04-05T19:57:15.747Z,100601.41
2019-04-05T19:59:49.156Z,100599.29
2019-04-05T20:02:22.641Z,100599.30
2019-04-05T20:04:56.039Z,100592.38
2019-04-05T20:07:29.402Z,100593.67
2019-04-05T20:10:02.790Z,100600.48
2019-04-05T20:12:36.190Z,100594.58
2019-04-05T20:15:09.626Z,100590.00
2019-04-05T20:17:43.002Z,100592.33
2019-04-05T20:20:16.341Z,100589.48
2019-04-05T20:22:49.670Z,100601.83
2019-04-05T20:25:23.111Z,100592.98
2019-04-05T20:27:56.403Z,100590.56
2019-04-05T20:30:30.074Z,100586.03
2019-04-05T20:33:03.454Z,100589.67
2019-04-05T20:35:37.901Z,100582.53
2019-04-05T20:38:11.572Z,100586.84
2019-04-05T20:40:45.200Z,100589.72
2019-04-05T20:43:18.587Z,100586.13
2019-04-05T20:45:51.993Z,100586.57
2019-04-05T20:48:25.369Z,100585.17
2019-04-05T20:50:58.785Z,100584.73
2019-04-05T20:53:32.089Z,100585.09
2019-04-05T20:56:05.451Z,100587.70
2019-04-05T20:58:38.651Z,100591.61
2019-04-05T21:01:13.638Z,100590.71
2019-04-05T21:03:46.951Z,100589.94
2019-04-05T21:06:20.276Z,100584.77
2019-04-05T21:11:27.224Z,100587.03
2019-04-05T21:14:00.574Z,100583.11
2019-04-05T21:16:34.812Z,100587.48
2019-04-05T21:19:08.267Z,100583.70
2019-04-05T21:21:41.702Z,100581.09
2019-04-05T21:24:15.150Z,100582.89
2019-04-05T21:26:48.912Z,100583.34
2019-04-05T21:29:22.452Z,100578.61
2019-04-05T21:31:55.803Z,100580.41
2019-04-05T21:34:29.235Z,100585.19
2019-04-05T21:37:02.667Z,100583.08
2019-04-05T21:39:36.087Z,100581.85
2019-04-05T21:42:09.508Z,100581.01
2019-04-05T21:44:42.844Z,100581.50
2019-04-05T21:47:16.241Z,100586.30
2019-04-05T21:49:49.565Z,100588.10
2019-04-05T21:52:23.457Z,100585.98
2019-04-05T21:54:56.948Z,100588.19
2019-04-05T21:57:30.441Z,100589.53
2019-04-05T22:00:26.849Z,100592.63
2019-04-05T22:03:02.768Z,100595.29
2019-04-05T22:05:36.181Z,100593.63
2019-04-05T22:08:09.775Z,100584.95
2019-04-05T22:10:43.103Z,100590.23
2019-04-05T22:13:17.469Z,100589.39
2019-04-05T22:15:50.959Z,100592.45
2019-04-05T22:18:24.392Z,100598.11
2019-04-05T22:20:57.759Z,100597.78
2019-04-05T22:23:32.284Z,100599.08
2019-04-05T22:26:05.887Z,100597.78
2019-04-05T22:28:39.350Z,100597.38
2019-04-05T22:31:12.753Z,100598.23
2019-04-05T22:33:46.139Z,100598.72
2019-04-05T22:36:19.565Z,100595.30
2019-04-05T22:38:52.977Z,100604.42
2019-04-05T22:41:26.411Z,100598.39
2019-04-05T22:43:59.806Z,100597.52
2019-04-05T22:46:33.199Z,100598.45
2019-04-05T22:49:06.580Z,100599.34
2019-04-05T22:51:39.947Z,100588.09
2019-04-05T22:54:13.303Z,100595.92
2019-04-05T22:56:46.654Z,100591.61
2019-04-05T22:59:20.050Z,100586.47
2019-04-05T23:01:53.550Z,100585.62
2019-04-05T23:04:27.019Z,100586.07
2019-04-05T23:07:00.371Z,100591.73
2019-04-05T23:09:33.764Z,100593.06
2019-04-05T23:12:08.666Z,100587.00
2019-04-05T23:14:42.181Z,100588.79
2019-04-05T23:17:15.546Z,100582.77
2019-04-05T23:19:48.964Z,100583.22
2019-04-05T23:22:22.490Z,100578.05
2019-04-05T23:24:55.914Z,100575.06
2019-04-05T23:27:29.608Z,100576.37
2019-04-05T23:30:04.324Z,100571.64
2019-04-05T23:32:37.700Z,100569.90
2019-04-05T23:35:11.080Z,100570.34
2019-04-05T23:37:44.506Z,100565.17
2019-04-05T23:40:17.881Z,100561.75
2019-04-05T23:42:52.788Z,100566.14
2019-04-05T23:45:26.163Z,100560.09
2019-04-05T23:47:59.539Z,100557.52
2019-04-05T23:50:33.096Z,100557.97
2019-04-05T23:53:06.444Z,100558.86
2019-04-05T23:55:39.898Z,100556.30
2019-04-05T23:58:13.423Z,100552.02
